Time;durP1;ratioP1;P1;durP2;ratioP2;P2;SDS_P1;SDS_P2;PMS_P1;PMS_P2;Temp;Humidity;BMP_temperature;BMP_pressure;BME280_temperature;BME280_humidity;BME280_pressure;Samples;Min_cycle;Max_cycle;Signal;HPM_P1;HPM_P2
2020/12/14 00:01:05;;;;;;;11.00;6.70;;;4.40;99.90;;;;;;5049158;28;20764;-54
2020/12/14 00:03:34;;;;;;;11.55;6.85;;;7.20;99.90;;;;;;5050175;28;20875;-54
2020/12/14 00:06:00;;;;;;;10.65;6.20;;;5.20;99.90;;;;;;5049384;28;20424;-54
2020/12/14 00:08:26;;;;;;;12.27;6.70;;;4.40;99.90;;;;;;5050135;28;20370;-54
2020/12/14 00:10:51;;;;;;;9.40;5.88;;;4.50;99.90;;;;;;5051460;28;20382;-54
2020/12/14 00:13:17;;;;;;;8.83;5.83;;;4.30;99.90;;;;;;5048742;28;20395;-54
2020/12/14 00:15:42;;;;;;;9.18;5.70;;;4.10;99.90;;;;;;5050811;28;20591;-54
2020/12/14 00:18:08;;;;;;;10.70;5.70;;;3.90;99.90;;;;;;5051213;28;20431;-54
2020/12/14 00:20:34;;;;;;;10.20;6.20;;;3.80;99.90;;;;;;5047806;28;20490;-54
2020/12/14 00:22:59;;;;;;;11.73;6.10;;;4.50;99.90;;;;;;5049207;28;20407;-54
2020/12/14 00:25:25;;;;;;;10.53;6.30;;;3.70;99.90;;;;;;5049768;28;20786;-55
2020/12/14 00:27:50;;;;;;;10.38;5.97;;;3.80;99.90;;;;;;5048938;28;20401;-54
2020/12/14 00:30:16;;;;;;;11.83;6.40;;;3.80;99.90;;;;;;5049692;28;20472;-54
2020/12/14 00:32:42;;;;;;;11.57;6.70;;;6.60;99.90;;;;;;5042987;28;20929;-54
2020/12/14 00:35:07;;;;;;;11.10;6.45;;;5.40;99.90;;;;;;5045520;28;20475;-54
2020/12/14 00:37:33;;;;;;;10.10;6.30;;;3.80;99.90;;;;;;5049555;28;20394;-54
2020/12/14 00:39:59;;;;;;;10.43;6.55;;;6.20;99.90;;;;;;5048526;28;20397;-55
2020/12/14 00:42:25;;;;;;;10.73;6.18;;;3.80;99.90;;;;;;5049435;28;20413;-55
2020/12/14 00:44:50;;;;;;;13.07;6.60;;;5.90;99.90;;;;;;5049729;28;20420;-55
2020/12/14 00:47:16;;;;;;;11.90;6.80;;;5.20;99.90;;;;;;5048721;28;20398;-57
2020/12/14 00:49:43;;;;;;;11.52;6.75;;;3.90;99.90;;;;;;5048355;28;21032;-54
2020/12/14 00:52:09;;;;;;;12.50;6.40;;;3.70;99.90;;;;;;5050402;28;20408;-54
2020/12/14 00:54:34;;;;;;;12.57;7.00;;;3.70;99.90;;;;;;5047628;28;21009;-54
2020/12/14 00:57:01;;;;;;;13.00;7.00;;;4.10;99.90;;;;;;5049629;28;20762;-55
2020/12/14 00:59:26;;;;;;;14.50;7.53;;;3.70;99.90;;;;;;5049640;28;20400;-55
2020/12/14 01:01:53;;;;;;;13.83;7.40;;;5.00;99.90;;;;;;5048849;28;20935;-54
2020/12/14 01:04:21;;;;;;;13.05;7.15;;;4.40;99.90;;;;;;5049072;28;20385;-54
2020/12/14 01:06:55;;;;;;;11.53;6.70;;;4.30;99.90;;;;;;5048791;28;20442;-54
2020/12/14 01:09:21;;;;;;;11.15;7.00;;;3.60;99.90;;;;;;5039241;28;20470;-54
2020/12/14 01:11:46;;;;;;;11.20;6.35;;;3.60;99.90;;;;;;5045329;28;20436;-54
2020/12/14 01:14:12;;;;;;;14.60;6.90;;;3.50;99.90;;;;;;5047112;28;20448;-61
2020/12/14 01:16:38;;;;;;;10.45;5.95;;;3.70;99.90;;;;;;5048681;28;20397;-55
2020/12/14 01:19:03;;;;;;;11.45;6.72;;;3.50;99.90;;;;;;5048027;28;20428;-54
2020/12/14 01:21:29;;;;;;;12.83;6.30;;;3.40;99.90;;;;;;5047084;28;20470;-57
2020/12/14 01:23:55;;;;;;;12.05;7.13;;;5.50;99.90;;;;;;5048462;28;20484;-53
2020/12/14 01:26:21;;;;;;;11.80;6.60;;;3.20;99.90;;;;;;5049055;28;20875;-54
2020/12/14 01:28:46;;;;;;;11.60;6.40;;;4.90;99.90;;;;;;5047787;28;20879;-56
2020/12/14 01:31:12;;;;;;;12.27;6.77;;;3.00;99.90;;;;;;5049443;28;20879;-53
2020/12/14 01:33:38;;;;;;;11.68;6.60;;;3.40;99.90;;;;;;5047122;28;20563;-53
2020/12/14 01:36:03;;;;;;;13.10;6.75;;;3.50;99.90;;;;;;5048545;28;20396;-56
2020/12/14 01:38:29;;;;;;;13.77;7.60;;;3.10;99.90;;;;;;5047886;28;20385;-54
2020/12/14 01:40:55;;;;;;;11.50;6.60;;;3.40;99.90;;;;;;5049509;28;20396;-54
2020/12/14 01:43:23;;;;;;;13.60;7.10;;;3.80;99.90;;;;;;5045786;28;20535;-54
2020/12/14 01:45:52;;;;;;;12.73;6.77;;;4.20;99.90;;;;;;5049605;28;20477;-56
2020/12/14 01:48:19;;;;;;;11.15;6.80;;;3.20;99.90;;;;;;5040177;28;20393;-54
2020/12/14 01:50:44;;;;;;;14.50;7.00;;;3.30;99.90;;;;;;5043368;28;20390;-54
2020/12/14 01:53:12;;;;;;;11.90;6.80;;;3.30;99.90;;;;;;5049719;28;20451;-54
2020/12/14 01:55:43;;;;;;;10.35;6.60;;;3.30;99.90;;;;;;5050980;28;20411;-54
2020/12/14 01:58:09;;;;;;;13.95;6.90;;;4.30;99.90;;;;;;5052099;28;20404;-54
2020/12/14 02:00:35;;;;;;;12.27;7.00;;;3.30;99.90;;;;;;5052748;28;20376;-54
2020/12/14 02:03:01;;;;;;;12.00;6.20;;;2.50;99.90;;;;;;5053618;28;20792;-54
2020/12/14 02:05:27;;;;;;;10.95;6.40;;;5.00;99.90;;;;;;5050898;28;20397;-54
2020/12/14 02:07:52;;;;;;;11.85;6.35;;;3.20;99.90;;;;;;5053281;28;20393;-54
2020/12/14 02:10:18;;;;;;;11.07;6.47;;;3.20;99.90;;;;;;5050654;28;20432;-56
2020/12/14 02:12:44;;;;;;;12.47;7.07;;;5.60;99.90;;;;;;5053182;28;20445;-53
2020/12/14 02:15:10;;;;;;;12.23;7.10;;;3.40;99.90;;;;;;5051621;28;20428;-54
2020/12/14 02:17:35;;;;;;;13.57;7.80;;;3.20;99.90;;;;;;5052003;28;20400;-53
2020/12/14 02:20:02;;;;;;;14.40;7.53;;;4.80;99.90;;;;;;5049822;28;20867;-55
2020/12/14 02:22:28;;;;;;;14.60;8.15;;;3.30;99.90;;;;;;5049844;28;20908;-54
2020/12/14 02:25:04;;;;;;;14.73;7.75;;;5.00;99.90;;;;;;5044361;28;20436;-54
2020/12/14 02:27:31;;;;;;;13.20;7.47;;;3.30;99.90;;;;;;5051793;28;20886;-54
2020/12/14 02:29:57;;;;;;;15.82;7.65;;;3.40;99.90;;;;;;5051893;28;20466;-53
2020/12/14 02:32:25;;;;;;;12.50;7.20;;;3.40;99.90;;;;;;5050154;28;20949;-53
2020/12/14 02:34:52;;;;;;;14.00;7.72;;;4.00;99.90;;;;;;5050985;28;20511;-54
2020/12/14 02:37:23;;;;;;;10.57;6.70;;;3.90;99.90;;;;;;5051665;28;20396;-53
2020/12/14 02:39:49;;;;;;;12.00;7.05;;;3.30;99.90;;;;;;5050786;28;20472;-54
2020/12/14 02:42:17;;;;;;;12.65;7.05;;;3.90;99.90;;;;;;5051341;28;20480;-61
2020/12/14 02:44:44;;;;;;;12.70;7.28;;;3.20;99.90;;;;;;5051528;28;20401;-55
2020/12/14 02:47:10;;;;;;;13.95;6.68;;;3.20;99.90;;;;;;5052877;28;20423;-55
2020/12/14 02:49:36;;;;;;;11.05;6.57;;;4.50;99.90;;;;;;5050239;28;21004;-54
2020/12/14 02:52:06;;;;;;;11.30;7.10;;;4.70;99.90;;;;;;5052811;28;20405;-54
2020/12/14 02:54:32;;;;;;;11.90;6.78;;;3.30;99.90;;;;;;5050949;28;20421;-54
2020/12/14 02:56:58;;;;;;;13.82;6.80;;;3.90;99.90;;;;;;5051477;28;20400;-55
2020/12/14 02:59:24;;;;;;;12.38;7.45;;;3.10;99.90;;;;;;5050892;28;20383;-54
2020/12/14 03:01:50;;;;;;;12.45;6.85;;;3.10;99.90;;;;;;5047000;28;20504;-55
2020/12/14 03:04:17;;;;;;;10.70;6.30;;;5.20;99.90;;;;;;5039089;28;20397;-60
2020/12/14 03:06:44;;;;;;;11.60;6.85;;;4.60;99.90;;;;;;5052462;28;20385;-53
2020/12/14 03:09:11;;;;;;;14.23;7.15;;;4.50;99.90;;;;;;5051025;28;20398;-54
2020/12/14 03:11:38;;;;;;;12.80;7.10;;;3.10;99.90;;;;;;5051641;28;20369;-54
2020/12/14 03:14:04;;;;;;;12.43;7.53;;;4.10;99.90;;;;;;5052198;28;20428;-54
2020/12/14 03:16:30;;;;;;;11.18;6.40;;;3.10;99.90;;;;;;5049661;28;20572;-55
2020/12/14 03:18:55;;;;;;;13.77;7.60;;;4.60;99.90;;;;;;5052157;28;20514;-54
2020/12/14 03:21:21;;;;;;;12.60;7.40;;;3.10;99.90;;;;;;5050463;28;20730;-54
2020/12/14 03:23:47;;;;;;;11.50;6.85;;;3.00;99.90;;;;;;5051077;28;20389;-55
2020/12/14 03:26:16;;;;;;;13.10;6.90;;;3.20;99.90;;;;;;5051720;28;20808;-54
2020/12/14 03:28:43;;;;;;;13.00;7.30;;;3.00;99.90;;;;;;5049942;28;20404;-55
2020/12/14 03:31:09;;;;;;;13.00;7.20;;;3.10;99.90;;;;;;5052008;28;20384;-54
2020/12/14 03:33:35;;;;;;;13.93;7.07;;;3.00;99.90;;;;;;5048032;28;20523;-55
2020/12/14 03:36:01;;;;;;;12.70;7.10;;;3.00;99.90;;;;;;5051255;28;20843;-54
2020/12/14 03:38:27;;;;;;;13.68;7.60;;;3.20;99.90;;;;;;5047048;28;20440;-55
2020/12/14 03:40:53;;;;;;;11.73;6.90;;;4.30;99.90;;;;;;5044297;28;20379;-52
2020/12/14 03:43:18;;;;;;;14.17;7.37;;;3.00;99.90;;;;;;5031276;28;20403;-59
2020/12/14 03:45:44;;;;;;;13.15;7.35;;;3.10;99.90;;;;;;5044978;28;20463;-52
2020/12/14 03:48:09;;;;;;;14.70;7.93;;;3.00;99.90;;;;;;5050763;28;20377;-53
2020/12/14 03:50:42;;;;;;;13.37;7.10;;;3.80;99.90;;;;;;5049143;28;20474;-52
2020/12/14 03:53:07;;;;;;;12.53;6.83;;;2.90;99.90;;;;;;5049951;28;20389;-52
2020/12/14 03:55:34;;;;;;;11.50;6.30;;;4.10;99.90;;;;;;5050237;28;20401;-54
2020/12/14 03:57:59;;;;;;;12.63;6.70;;;3.50;99.90;;;;;;5049667;28;20397;-54
2020/12/14 04:00:25;;;;;;;12.43;6.93;;;4.70;99.90;;;;;;5050558;28;20791;-54
2020/12/14 04:02:50;;;;;;;12.32;6.70;;;2.70;99.90;;;;;;5049178;28;20888;-54
2020/12/14 04:05:16;;;;;;;12.00;6.13;;;3.80;99.90;;;;;;5049259;28;20402;-60
2020/12/14 04:07:42;;;;;;;11.38;6.22;;;4.60;99.90;;;;;;5050460;28;20376;-55
2020/12/14 04:10:07;;;;;;;11.57;6.40;;;3.80;99.90;;;;;;5049491;28;20400;-54
2020/12/14 04:12:33;;;;;;;12.97;6.47;;;2.70;99.90;;;;;;5050406;28;20815;-54
2020/12/14 04:14:58;;;;;;;13.90;6.70;;;2.80;99.90;;;;;;5051129;28;20510;-54
2020/12/14 04:17:24;;;;;;;13.63;6.80;;;5.70;99.90;;;;;;5047449;28;20732;-54
2020/12/14 04:19:50;;;;;;;12.40;6.80;;;3.70;99.90;;;;;;5050723;28;20723;-55
2020/12/14 04:22:15;;;;;;;14.73;8.00;;;4.70;99.90;;;;;;5047988;28;20402;-52
2020/12/14 04:24:41;;;;;;;14.20;8.10;;;5.70;99.90;;;;;;5050054;28;20444;-54
2020/12/14 04:27:07;;;;;;;15.98;8.38;;;3.20;99.90;;;;;;5048943;28;20875;-59
2020/12/14 04:29:33;;;;;;;14.80;8.10;;;3.20;99.90;;;;;;5049771;28;20386;-55
2020/12/14 04:32:00;;;;;;;13.52;7.75;;;3.20;99.90;;;;;;5049425;28;20470;-54
2020/12/14 04:34:26;;;;;;;13.60;7.43;;;3.20;99.90;;;;;;5048804;28;20503;-56
2020/12/14 04:36:52;;;;;;;15.70;8.10;;;3.60;99.90;;;;;;5047433;28;20518;-54
2020/12/14 04:39:19;;;;;;;13.40;6.82;;;5.00;99.90;;;;;;5050310;28;20389;-61
2020/12/14 04:41:44;;;;;;;12.40;6.38;;;5.60;99.90;;;;;;5050121;28;20377;-56
2020/12/14 04:44:11;;;;;;;12.77;6.60;;;2.90;99.90;;;;;;5048430;28;20891;-52
2020/12/14 04:46:37;;;;;;;12.98;6.28;;;2.90;99.90;;;;;;5049253;28;20386;-53
2020/12/14 04:49:07;;;;;;;13.30;6.70;;;4.30;99.90;;;;;;5048610;28;20400;-53
2020/12/14 04:51:36;;;;;;;10.33;5.83;;;5.30;99.90;;;;;;5049507;28;20488;-53
2020/12/14 04:54:04;;;;;;;11.93;7.20;;;3.60;99.90;;;;;;5050878;28;20448;-53
2020/12/14 04:56:30;;;;;;;12.93;7.50;;;5.00;99.90;;;;;;5090138;28;20471;-54
2020/12/14 04:58:58;;;;;;;13.35;7.18;;;2.70;99.90;;;;;;5042233;28;20473;-54
2020/12/14 05:01:24;;;;;;;15.20;7.40;;;5.30;99.90;;;;;;5044088;28;20473;-55
2020/12/14 05:03:50;;;;;;;13.60;7.60;;;3.10;99.90;;;;;;5050755;28;20445;-54
2020/12/14 05:06:16;;;;;;;13.15;7.30;;;2.70;99.90;;;;;;5052085;28;20423;-54
2020/12/14 05:08:42;;;;;;;13.57;7.10;;;2.70;99.90;;;;;;5056479;28;20385;-54
2020/12/14 05:11:09;;;;;;;14.73;8.30;;;3.00;99.90;;;;;;5050067;28;20867;-53
2020/12/14 05:13:35;;;;;;;13.18;7.05;;;3.80;99.90;;;;;;5050151;28;20464;-55
2020/12/14 05:16:01;;;;;;;15.30;7.60;;;2.80;99.90;;;;;;5048208;28;20397;-53
2020/12/14 05:18:27;;;;;;;12.33;7.17;;;2.80;99.90;;;;;;5051555;28;20392;-53
2020/12/14 05:20:57;;;;;;;13.33;7.13;;;4.30;99.90;;;;;;5050521;28;20385;-53
2020/12/14 05:23:23;;;;;;;13.25;7.40;;;5.30;99.90;;;;;;5047157;28;20405;-53
2020/12/14 05:25:49;;;;;;;16.50;7.60;;;4.10;99.90;;;;;;5040915;28;20397;-52
2020/12/14 05:28:19;;;;;;;14.57;7.10;;;3.30;99.90;;;;;;5042617;28;20788;-53
2020/12/14 05:30:50;;;;;;;11.17;6.40;;;5.60;99.90;;;;;;5044190;28;20396;-53
2020/12/14 05:33:20;;;;;;;11.13;6.20;;;3.10;99.90;;;;;;5044808;28;21150;-53
2020/12/14 05:35:47;;;;;;;13.93;7.20;;;5.90;99.90;;;;;;5048984;28;20447;-53
2020/12/14 05:38:39;;;;;;;11.70;6.50;;;3.10;99.90;;;;;;5047987;28;20459;-53
2020/12/14 05:41:05;;;;;;;11.00;6.40;;;3.20;99.90;;;;;;5047963;28;20390;-53
2020/12/14 05:43:32;;;;;;;12.17;6.80;;;3.10;99.90;;;;;;5047905;28;20876;-53
2020/12/14 05:46:12;;;;;;;11.90;6.88;;;4.30;99.90;;;;;;5048784;28;20397;-53
2020/12/14 05:48:38;;;;;;;11.68;6.30;;;5.60;99.90;;;;;;5047416;28;20460;-53
2020/12/14 05:51:06;;;;;;;13.40;7.03;;;5.10;99.90;;;;;;5049472;28;20484;-52
2020/12/14 05:53:41;;;;;;;11.80;6.43;;;3.20;99.90;;;;;;5017036;28;20538;-53
2020/12/14 05:56:09;;;;;;;11.32;6.30;;;3.30;99.90;;;;;;5060237;28;20416;-53
2020/12/14 05:58:39;;;;;;;12.30;6.55;;;3.30;99.90;;;;;;5054022;28;20382;-55
2020/12/14 06:01:08;;;;;;;14.80;8.02;;;3.30;99.90;;;;;;5052931;28;20400;-55
2020/12/14 06:03:35;;;;;;;15.48;7.80;;;3.20;99.90;;;;;;5044952;28;20396;-54
2020/12/14 06:06:04;;;;;;;16.93;9.57;;;4.60;99.90;;;;;;5043666;28;20455;-54
2020/12/14 06:08:45;;;;;;;20.40;10.77;;;5.00;99.90;;;;;;5037824;28;20791;-57
2020/12/14 06:11:20;;;;;;;17.75;9.10;;;3.10;99.90;;;;;;5046626;28;20404;-55
2020/12/14 06:13:55;;;;;;;13.23;7.32;;;3.10;99.90;;;;;;5034399;28;20375;-54
2020/12/14 06:16:34;;;;;;;11.98;6.72;;;3.00;99.90;;;;;;5046358;28;20488;-60
2020/12/14 06:19:01;;;;;;;13.23;6.70;;;3.10;99.90;;;;;;5049165;28;20397;-54
2020/12/14 06:21:46;;;;;;;13.27;7.40;;;3.00;99.90;;;;;;5033219;28;20417;-54
2020/12/14 06:24:21;;;;;;;13.75;6.68;;;2.90;99.90;;;;;;5052677;28;20396;-55
2020/12/14 06:26:47;;;;;;;13.17;7.10;;;2.90;99.90;;;;;;5046557;28;20385;-56
2020/12/14 06:29:32;;;;;;;13.43;7.40;;;3.00;99.90;;;;;;5047793;28;20408;-54
2020/12/14 06:31:58;;;;;;;14.30;7.00;;;4.80;99.90;;;;;;5046380;28;20393;-54
2020/12/14 06:34:33;;;;;;;12.77;7.63;;;4.90;99.90;;;;;;5048500;28;20416;-54
2020/12/14 06:37:00;;;;;;;14.85;7.22;;;3.00;99.90;;;;;;5038898;28;20401;-55
2020/12/14 06:39:31;;;;;;;13.90;7.10;;;3.60;99.90;;;;;;5046742;28;20389;-54
2020/12/14 06:42:09;;;;;;;13.38;7.70;;;3.00;99.90;;;;;;5048454;28;20887;-54
2020/12/14 06:44:36;;;;;;;13.32;7.68;;;4.70;99.90;;;;;;5047092;28;20401;-54
2020/12/14 06:47:18;;;;;;;14.02;7.30;;;4.30;99.90;;;;;;5040396;28;20894;-56
2020/12/14 06:49:45;;;;;;;16.03;7.23;;;3.00;99.90;;;;;;5044325;28;20388;-55
2020/12/14 06:52:11;;;;;;;12.43;7.38;;;5.60;99.90;;;;;;5030284;28;20436;-54
2020/12/14 06:54:47;;;;;;;16.33;8.33;;;3.00;99.90;;;;;;5048735;28;20883;-55
2020/12/14 06:57:19;;;;;;;15.45;7.30;;;3.00;99.90;;;;;;5036898;28;20417;-54
2020/12/14 06:59:53;;;;;;;13.90;7.38;;;3.00;99.90;;;;;;5052155;28;20500;-55
2020/12/14 07:02:33;;;;;;;14.60;8.20;;;3.00;99.90;;;;;;5046535;28;20409;-60
2020/12/14 07:04:59;;;;;;;15.07;7.40;;;5.60;99.90;;;;;;5035993;28;20770;-54
2020/12/14 07:07:25;;;;;;;12.77;6.70;;;3.00;99.90;;;;;;5033891;28;20867;-56
2020/12/14 07:09:50;;;;;;;15.20;7.20;;;2.90;99.90;;;;;;5038897;28;20406;-53
2020/12/14 07:12:16;;;;;;;13.33;7.30;;;2.90;99.90;;;;;;5046323;28;20447;-54
2020/12/14 07:14:50;;;;;;;15.13;8.05;;;2.90;99.90;;;;;;5038381;28;20412;-55
2020/12/14 07:17:29;;;;;;;12.75;6.85;;;2.80;99.90;;;;;;5047394;28;20401;-54
2020/12/14 07:20:00;;;;;;;13.75;7.47;;;3.00;99.90;;;;;;5041753;28;20876;-54
2020/12/14 07:22:48;;;;;;;12.07;6.70;;;2.80;99.90;;;;;;5029766;28;20414;-54
2020/12/14 07:25:23;;;;;;;12.40;7.70;;;2.90;99.90;;;;;;5050554;28;20900;-54
2020/12/14 07:27:49;;;;;;;14.25;7.60;;;4.10;99.90;;;;;;5046125;28;20682;-55
2020/12/14 07:30:18;;;;;;;16.67;7.00;;;4.80;99.90;;;;;;5043812;28;20480;-54
2020/12/14 07:32:47;;;;;;;14.88;8.13;;;3.10;99.90;;;;;;5036963;28;20417;-54
2020/12/14 07:35:14;;;;;;;16.38;9.18;;;3.20;99.90;;;;;;5055595;28;20905;-54
2020/12/14 07:37:42;;;;;;;17.35;9.70;;;3.20;99.90;;;;;;5056299;28;20387;-57
2020/12/14 07:40:10;;;;;;;16.95;9.10;;;3.20;99.90;;;;;;5054922;28;20482;-54
2020/12/14 07:42:38;;;;;;;18.10;8.55;;;3.20;99.90;;;;;;5048984;28;20435;-54
2020/12/14 07:45:08;;;;;;;15.07;8.25;;;3.20;99.90;;;;;;5053873;28;20403;-54
2020/12/14 07:47:33;;;;;;;17.05;7.68;;;3.30;99.90;;;;;;5081273;28;20740;-54
2020/12/14 07:50:17;;;;;;;17.65;8.70;;;3.30;99.90;;;;;;5048980;28;20772;-54
2020/12/14 07:52:43;;;;;;;15.13;8.15;;;3.30;99.90;;;;;;5034252;28;20843;-54
2020/12/14 07:55:13;;;;;;;15.32;7.93;;;4.40;99.90;;;;;;5049354;28;20498;-55
2020/12/14 07:57:41;;;;;;;15.10;7.75;;;3.40;99.90;;;;;;5046374;28;20401;-55
2020/12/14 08:00:20;;;;;;;15.30;7.50;;;3.40;99.90;;;;;;5050533;28;20464;-55
2020/12/14 08:02:46;;;;;;;16.50;8.35;;;3.40;99.90;;;;;;5046567;28;20401;-54
2020/12/14 08:05:16;;;;;;;16.77;8.52;;;3.40;99.90;;;;;;5053017;28;21081;-54
2020/12/14 08:07:54;;;;;;;16.30;8.27;;;3.30;99.90;;;;;;5047740;28;20387;-55
2020/12/14 08:10:30;;;;;;;17.90;8.70;;;3.50;99.90;;;;;;5042594;28;20418;-60
2020/12/14 08:13:00;;;;;;;16.65;8.40;;;3.50;99.90;;;;;;5051773;28;20419;-54
2020/12/14 08:15:28;;;;;;;15.55;8.27;;;3.50;99.90;;;;;;5044749;28;20477;-54
2020/12/14 08:17:54;;;;;;;17.00;8.50;;;3.60;99.90;;;;;;5043056;28;20470;-55
2020/12/14 08:20:29;;;;;;;16.17;8.98;;;3.60;99.90;;;;;;5031341;28;20760;-59
2020/12/14 08:22:58;;;;;;;16.40;9.10;;;3.00;99.90;;;;;;5040525;28;20400;-54
2020/12/14 08:25:33;;;;;;;17.40;9.50;;;4.60;99.90;;;;;;5046345;28;20758;-56
2020/12/14 08:28:03;;;;;;;17.92;9.63;;;3.80;99.90;;;;;;5046972;28;20386;-54
2020/12/14 08:30:31;;;;;;;20.98;10.10;;;3.90;99.90;;;;;;5029199;28;20462;-55
2020/12/14 08:33:11;;;;;;;20.30;10.20;;;4.10;99.90;;;;;;5041409;28;20417;-53
2020/12/14 08:35:44;;;;;;;19.25;10.05;;;4.10;99.90;;;;;;5048896;28;20446;-53
2020/12/14 08:38:16;;;;;;;16.77;8.82;;;4.20;99.90;;;;;;5047222;28;20401;-54
2020/12/14 08:40:52;;;;;;;15.25;9.02;;;4.30;99.90;;;;;;5049079;28;20443;-53
2020/12/14 08:43:18;;;;;;;17.58;9.68;;;4.40;99.90;;;;;;5038881;28;20413;-55
2020/12/14 08:46:05;;;;;;;17.07;9.00;;;4.60;99.90;;;;;;5037983;28;20438;-55
2020/12/14 08:48:48;;;;;;;20.70;9.00;;;4.60;99.90;;;;;;5048167;28;20389;-53
2020/12/14 08:51:23;;;;;;;15.07;8.90;;;4.80;99.90;;;;;;5044569;28;20419;-58
2020/12/14 08:53:51;;;;;;;16.58;9.50;;;5.00;99.90;;;;;;5030305;28;20741;-55
2020/12/14 08:56:33;;;;;;;15.52;8.70;;;5.10;99.90;;;;;;5038498;28;20863;-54
2020/12/14 08:59:00;;;;;;;16.33;8.10;;;5.40;99.90;;;;;;5044334;28;20411;-54
2020/12/14 09:01:32;;;;;;;16.33;8.52;;;5.90;99.90;;;;;;5038546;28;20406;-54
2020/12/14 09:04:00;;;;;;;13.18;8.00;;;6.70;99.90;;;;;;5044912;28;20393;-54
2020/12/14 09:06:27;;;;;;;14.52;7.50;;;8.00;99.90;;;;;;5044541;28;22605;-55
2020/12/14 09:09:10;;;;;;;12.83;7.20;;;9.00;99.90;;;;;;5038283;28;20387;-54
2020/12/14 09:11:48;;;;;;;13.32;7.10;;;9.90;99.90;;;;;;5034179;28;20422;-54
2020/12/14 09:14:29;;;;;;;12.83;7.40;;;10.50;99.90;;;;;;5037516;28;20424;-56
2020/12/14 09:16:58;;;;;;;13.18;7.32;;;9.10;99.90;;;;;;5036608;28;20424;-58
2020/12/14 09:19:27;;;;;;;12.88;7.60;;;11.70;99.90;;;;;;5042211;28;20531;-60
2020/12/14 09:21:54;;;;;;;11.45;6.70;;;11.80;99.90;;;;;;5032756;28;22148;-55
2020/12/14 09:24:27;;;;;;;12.70;7.70;;;12.40;99.90;;;;;;5043708;28;20389;-55
2020/12/14 09:27:00;;;;;;;14.13;7.32;;;12.30;99.90;;;;;;5045921;28;20409;-54
2020/12/14 09:29:26;;;;;;;12.43;7.00;;;12.00;99.90;;;;;;5044084;28;20387;-58
2020/12/14 09:31:53;;;;;;;12.15;7.35;;;11.90;99.90;;;;;;5042194;28;20401;-56
2020/12/14 09:34:20;;;;;;;12.93;7.65;;;12.20;99.90;;;;;;5041627;28;20777;-55
2020/12/14 09:36:49;;;;;;;12.75;7.03;;;13.50;99.90;;;;;;5036051;28;20488;-54
2020/12/14 09:39:15;;;;;;;13.05;8.20;;;12.80;99.90;;;;;;5041939;28;20525;-54
2020/12/14 09:41:41;;;;;;;15.32;8.35;;;13.30;99.90;;;;;;5044913;28;21154;-57
2020/12/14 09:44:07;;;;;;;13.65;7.25;;;13.70;99.90;;;;;;5040520;28;20899;-54
2020/12/14 09:46:33;;;;;;;13.03;7.20;;;13.80;99.90;;;;;;5043403;28;20439;-55
2020/12/14 09:48:59;;;;;;;13.25;7.20;;;13.60;99.90;;;;;;5046703;28;21064;-55
2020/12/14 09:51:26;;;;;;;12.38;7.50;;;13.90;99.90;;;;;;5038204;28;20522;-56
2020/12/14 09:53:52;;;;;;;11.95;6.80;;;13.80;99.90;;;;;;5036718;28;20408;-60
2020/12/14 09:56:18;;;;;;;14.37;7.30;;;14.00;99.90;;;;;;5044998;28;20385;-60
2020/12/14 09:58:45;;;;;;;13.07;7.38;;;13.70;99.90;;;;;;5069852;28;20395;-54
2020/12/14 10:01:11;;;;;;;11.32;6.68;;;13.10;99.90;;;;;;5040190;28;20410;-54
2020/12/14 10:03:36;;;;;;;11.63;6.90;;;12.30;99.90;;;;;;5041723;28;20470;-54
2020/12/14 10:06:03;;;;;;;14.88;7.90;;;11.30;99.90;;;;;;5045318;28;20428;-54
2020/12/14 10:08:28;;;;;;;18.50;10.65;;;10.70;99.90;;;;;;5046423;28;20408;-55
2020/12/14 10:10:56;;;;;;;16.65;7.85;;;10.20;99.90;;;;;;5045923;28;20398;-54
2020/12/14 10:13:23;;;;;;;13.65;8.70;;;9.80;99.90;;;;;;5045859;28;20468;-60
2020/12/14 10:15:50;;;;;;;14.93;8.77;;;9.60;99.90;;;;;;5047023;28;20898;-56
2020/12/14 10:18:20;;;;;;;13.52;7.63;;;9.60;99.90;;;;;;5049299;28;20397;-54
2020/12/14 10:20:47;;;;;;;12.55;7.75;;;9.60;99.90;;;;;;5047191;28;20389;-54
2020/12/14 10:23:13;;;;;;;15.40;9.43;;;6.90;99.90;;;;;;5039690;28;20404;-55
2020/12/14 10:25:39;;;;;;;14.23;8.83;;;9.30;99.90;;;;;;5041674;28;20401;-58
2020/12/14 10:28:05;;;;;;;15.10;8.02;;;9.30;99.90;;;;;;5039598;28;20883;-54
2020/12/14 10:30:32;;;;;;;13.82;8.20;;;9.10;99.90;;;;;;5042469;28;20421;-55
2020/12/14 10:32:59;;;;;;;15.52;9.00;;;8.90;99.90;;;;;;5041544;28;20398;-54
2020/12/14 10:35:25;;;;;;;14.18;7.63;;;8.80;99.90;;;;;;5041639;28;20415;-63
2020/12/14 10:37:51;;;;;;;13.60;8.30;;;8.80;99.90;;;;;;5044652;28;20385;-54
2020/12/14 10:40:17;;;;;;;13.70;6.50;;;8.60;99.90;;;;;;5043158;28;20401;-53
2020/12/14 10:42:43;;;;;;;13.23;7.90;;;8.40;99.90;;;;;;5041236;28;20411;-54
2020/12/14 10:45:10;;;;;;;15.18;7.68;;;8.50;99.90;;;;;;5043745;28;20405;-54
2020/12/14 10:47:39;;;;;;;12.00;7.00;;;8.50;99.90;;;;;;5040313;28;20397;-54
2020/12/14 10:50:06;;;;;;;12.10;7.50;;;8.50;99.90;;;;;;5041061;28;20453;-58
2020/12/14 10:52:32;;;;;;;13.63;8.23;;;8.40;99.90;;;;;;5035409;28;20417;-54
2020/12/14 10:54:58;;;;;;;14.65;8.88;;;8.50;99.90;;;;;;5044614;28;20951;-55
2020/12/14 10:57:24;;;;;;;14.18;8.32;;;8.60;99.90;;;;;;5045945;28;20748;-54
2020/12/14 10:59:49;;;;;;;12.33;6.97;;;8.50;99.90;;;;;;5050918;28;20429;-56
2020/12/14 11:02:15;;;;;;;12.85;7.28;;;8.50;99.90;;;;;;5041086;28;21065;-54
2020/12/14 11:04:41;;;;;;;14.70;8.40;;;8.50;99.90;;;;;;5041061;28;20397;-54
2020/12/14 11:07:08;;;;;;;12.90;6.80;;;8.40;99.90;;;;;;5045352;28;20405;-54
2020/12/14 11:09:34;;;;;;;13.10;7.40;;;8.60;99.90;;;;;;5040109;28;20391;-54
2020/12/14 11:12:04;;;;;;;11.80;6.47;;;8.60;99.90;;;;;;5042303;28;20424;-54
2020/12/14 11:14:30;;;;;;;10.85;6.53;;;8.60;99.90;;;;;;5041094;28;20504;-54
2020/12/14 11:16:56;;;;;;;11.77;6.80;;;8.50;99.90;;;;;;5044850;28;20397;-55
2020/12/14 11:19:22;;;;;;;13.63;7.80;;;8.50;99.90;;;;;;5044457;28;20421;-54
2020/12/14 11:21:54;;;;;;;12.32;7.53;;;8.70;99.90;;;;;;5032331;28;20731;-54
2020/12/14 11:24:22;;;;;;;13.05;7.30;;;8.80;99.90;;;;;;5038849;28;20946;-55
2020/12/14 11:26:48;;;;;;;14.48;7.32;;;8.80;99.90;;;;;;5043278;28;20451;-54
2020/12/14 11:29:15;;;;;;;13.48;6.70;;;8.90;99.90;;;;;;5048349;28;20381;-55
2020/12/14 11:31:41;;;;;;;11.70;6.85;;;9.00;99.90;;;;;;5041019;28;20397;-56
2020/12/14 11:34:07;;;;;;;14.85;7.15;;;9.00;99.90;;;;;;5047805;28;20447;-56
2020/12/14 11:36:33;;;;;;;11.77;7.25;;;9.00;99.90;;;;;;5048685;28;20747;-54
2020/12/14 11:39:01;;;;;;;14.30;6.90;;;8.90;99.90;;;;;;5042355;28;20429;-56
2020/12/14 11:41:27;;;;;;;11.68;6.70;;;8.80;99.90;;;;;;5043820;28;20944;-60
2020/12/14 11:43:53;;;;;;;11.83;6.90;;;8.70;99.90;;;;;;5046887;28;20389;-54
2020/12/14 11:46:19;;;;;;;10.70;6.35;;;8.70;99.90;;;;;;5048798;28;20800;-54
2020/12/14 11:48:46;;;;;;;12.60;7.05;;;8.70;99.90;;;;;;5037128;28;21022;-53
2020/12/14 11:51:11;;;;;;;12.32;6.80;;;8.80;99.90;;;;;;5049213;28;20401;-54
2020/12/14 11:53:37;;;;;;;10.63;6.60;;;8.90;99.90;;;;;;5035077;28;20769;-54
2020/12/14 11:56:02;;;;;;;16.75;8.80;;;9.00;99.90;;;;;;5042385;28;20855;-54
2020/12/14 11:58:28;;;;;;;20.40;7.57;;;9.00;99.90;;;;;;5046016;28;20394;-54
2020/12/14 12:00:54;;;;;;;14.50;7.70;;;9.00;99.90;;;;;;5049312;28;20385;-54
2020/12/14 12:03:20;;;;;;;13.30;7.53;;;9.10;99.90;;;;;;5045148;28;20427;-53
2020/12/14 12:05:46;;;;;;;14.90;9.30;;;9.20;99.90;;;;;;5040856;28;20575;-55
2020/12/14 12:08:12;;;;;;;14.35;7.30;;;9.20;99.90;;;;;;5047242;28;20390;-54
2020/12/14 12:10:38;;;;;;;11.77;6.90;;;9.20;99.90;;;;;;5034034;28;20390;-54
2020/12/14 12:13:04;;;;;;;12.23;6.43;;;9.20;99.90;;;;;;5035622;28;20859;-54
2020/12/14 12:15:30;;;;;;;14.48;7.22;;;9.20;99.90;;;;;;5044014;28;20424;-55
2020/12/14 12:17:55;;;;;;;11.35;7.45;;;9.30;99.90;;;;;;5040165;28;20426;-54
2020/12/14 12:20:21;;;;;;;12.63;6.40;;;9.50;99.90;;;;;;5043586;28;20496;-54
2020/12/14 12:22:47;;;;;;;13.10;6.82;;;9.40;99.90;;;;;;5039587;28;20467;-55
2020/12/14 12:25:13;;;;;;;14.70;6.97;;;9.50;99.90;;;;;;5045421;28;20405;-54
2020/12/14 12:27:39;;;;;;;12.65;6.60;;;9.50;99.90;;;;;;5044518;28;20420;-55
2020/12/14 12:30:05;;;;;;;12.75;6.95;;;9.50;99.90;;;;;;5042461;28;20847;-54
2020/12/14 12:32:31;;;;;;;11.82;7.05;;;9.60;99.90;;;;;;5045873;28;20385;-54
2020/12/14 12:34:57;;;;;;;13.60;7.60;;;9.50;99.90;;;;;;5045809;28;20421;-56
2020/12/14 12:37:22;;;;;;;14.00;7.43;;;9.50;99.90;;;;;;5046201;28;20409;-54
2020/12/14 12:39:48;;;;;;;11.63;7.10;;;9.50;99.90;;;;;;5047145;28;20492;-55
2020/12/14 12:42:15;;;;;;;11.10;6.70;;;9.70;99.90;;;;;;5044909;28;20389;-53
2020/12/14 12:44:40;;;;;;;12.25;6.82;;;9.80;99.90;;;;;;5033510;28;20422;-56
2020/12/14 12:47:06;;;;;;;13.20;8.10;;;9.90;99.90;;;;;;5047076;28;20374;-54
2020/12/14 12:49:33;;;;;;;12.57;7.30;;;10.00;99.90;;;;;;5043918;28;20480;-54